Southampton, NY

7:50 AM EST on November 28, 2014 (GMT -0500)
Shinnecock Hills | Change Station
CLOSE
Current Station
Personal Weather Station
Location: Southampton, NY
Elevation: 20 ft
Nearby Weather Stations

Elev 20 ft 40.90 °N, 72.44 °W | Updated 4 minutes ago

Partly Cloudy
Partly Cloudy
33.4 °F
Feels Like 26 °F
N
9.0
Wind Variable Wind from WNW
Gusts 16.0 mph

Today
High -- | Low -- °F
--% Chance of Precip.
Yesterday
High -- | Low -- °F
Precip. -- in
6:51 AM 4:23 PM
Waxing Crescent, 40% visible
Pressure 30.10 in
Visibility 10.0 miles
Clouds Scattered Clouds 3800 ft
Scattered Clouds 4700 ft
Windchill 26 °F
Dew Point 27 °F
Humidity 77%
Rainfall -999.00 in
Snow Depth Not available.
UV 0 out of 12
Pollen .10 out of 12
Air Quality Not available.
Flu Activity Not available.
METAR KFOK 281153Z AUTO 32010G16KT 10SM SCT038 SCT047 01/M04 A3010 RMK AO2 SLP192 T00061044 10017 20000 53019 TSNO

More Conditions Fewer Conditions

Pressure 30.10 in
Visibility 10.0 miles
Clouds Scattered Clouds 3800 ft
Scattered Clouds 4700 ft
Windchill 26 °F
Dew Point 27 °F
Humidity 77%
Rainfall -999.00 in
Snow Depth Not available.
UV 0 out of 12
Pollen .10 out of 12
Air Quality Not available.
Flu Activity Not available.
METAR KFOK 281153Z AUTO 32010G16KT 10SM SCT038 SCT047 01/M04 A3010 RMK AO2 SLP192 T00061044 10017 20000 53019 TSNO

More Conditions Fewer Conditions

10-Day Weather Forecast

Almanac

Astronomy

Nov. 28, 2014 Rise Set
Actual Time
Civil Twilight
Nautical Twilight
Astronomical Twilight
Moon
Length of Visible Light
Length of Day
Tomorrow will be .
, % of the Moon is Illuminated

Today's Extremes

State Highs State Lows

Community

WunderPhotos

Upload Photos

1,774,199 photos uploaded!

WunderBlogs® & News

Nearby

Air Quality

  Air Quality AQ Index Pollutant
Not available.

Snow Depth

Station Depth Elevation

Earthquake Activity

City Distance Mag. Time & Date
Minimum magnitude displayed is 2.5.

Coastal Water Temperatures

Place Temperature

Nearby Weather Stations